sensor_id;sensor_type;location;lat;lon;timestamp;pressure;altitude;pressure_sealevel;temperature;humidity
35291;BME280;21411;50.024;19.220;2023-02-28T00:00:37;100158.91;;;-0.57;100.00
35291;BME280;21411;50.024;19.220;2023-02-28T00:03:17;100154.73;;;-0.62;100.00
35291;BME280;21411;50.024;19.220;2023-02-28T00:05:44;100157.54;;;-0.67;100.00
35291;BME280;21411;50.024;19.220;2023-02-28T00:08:10;100158.77;;;-0.72;100.00
35291;BME280;21411;50.024;19.220;2023-02-28T00:10:38;100167.85;;;-0.75;100.00
35291;BME280;21411;50.024;19.220;2023-02-28T00:13:05;100169.60;;;-0.78;100.00
35291;BME280;21411;50.024;19.220;2023-02-28T00:15:33;100172.56;;;-0.80;100.00
35291;BME280;21411;50.024;19.220;2023-02-28T00:18:00;100171.52;;;-0.83;100.00
35291;BME280;21411;50.024;19.220;2023-02-28T00:20:32;100173.80;;;-0.86;100.00
35291;BME280;21411;50.024;19.220;2023-02-28T00:22:58;100176.08;;;-0.88;100.00
35291;BME280;21411;50.024;19.220;2023-02-28T00:25:25;100174.16;;;-0.91;100.00
35291;BME280;21411;50.024;19.220;2023-02-28T00:27:52;100180.62;;;-0.92;100.00
35291;BME280;21411;50.024;19.220;2023-02-28T00:30:21;100186.90;;;-0.94;100.00
35291;BME280;21411;50.024;19.220;2023-02-28T00:32:49;100191.27;;;-0.96;100.00
35291;BME280;21411;50.024;19.220;2023-02-28T00:35:15;100191.09;;;-0.95;100.00
35291;BME280;21411;50.024;19.220;2023-02-28T00:37:42;100189.34;;;-0.95;100.00
35291;BME280;21411;50.024;19.220;2023-02-28T00:40:09;100186.91;;;-0.95;100.00
35291;BME280;21411;50.024;19.220;2023-02-28T00:42:38;100188.65;;;-0.94;100.00
35291;BME280;21411;50.024;19.220;2023-02-28T00:45:05;100191.27;;;-0.93;100.00
35291;BME280;21411;50.024;19.220;2023-02-28T00:47:32;100184.80;;;-0.94;100.00
35291;BME280;21411;50.024;19.220;2023-02-28T00:49:59;100184.81;;;-0.94;100.00
35291;BME280;21411;50.024;19.220;2023-02-28T00:52:25;100186.21;;;-0.94;100.00
35291;BME280;21411;50.024;19.220;2023-02-28T00:54:52;100189.00;;;-0.94;100.00
35291;BME280;21411;50.024;19.220;2023-02-28T00:57:19;100187.60;;;-0.93;100.00
35291;BME280;21411;50.024;19.220;2023-02-28T00:59:45;100190.39;;;-0.93;100.00
35291;BME280;21411;50.024;19.220;2023-02-28T01:02:12;100185.85;;;-0.94;100.00
35291;BME280;21411;50.024;19.220;2023-02-28T01:04:39;100178.88;;;-0.94;100.00
35291;BME280;21411;50.024;19.220;2023-02-28T01:07:06;100176.61;;;-0.93;100.00
35291;BME280;21411;50.024;19.220;2023-02-28T01:09:32;100177.30;;;-0.93;100.00
35291;BME280;21411;50.024;19.220;2023-02-28T01:11:59;100178.88;;;-0.93;100.00
35291;BME280;21411;50.024;19.220;2023-02-28T01:14:25;100174.16;;;-0.92;100.00
35291;BME280;21411;50.024;19.220;2023-02-28T01:16:52;100168.23;;;-0.94;100.00
35291;BME280;21411;50.024;19.220;2023-02-28T01:19:19;100169.11;;;-0.94;100.00
35291;BME280;21411;50.024;19.220;2023-02-28T01:21:45;100171.91;;;-0.97;100.00
35291;BME280;21411;50.024;19.220;2023-02-28T01:24:12;100172.08;;;-0.99;100.00
35291;BME280;21411;50.024;19.220;2023-02-28T01:26:38;100171.21;;;-1.02;100.00
35291;BME280;21411;50.024;19.220;2023-02-28T01:29:05;100170.86;;;-1.05;100.00
35291;BME280;21411;50.024;19.220;2023-02-28T01:31:32;100166.69;;;-1.09;100.00
35291;BME280;21411;50.024;19.220;2023-02-28T01:33:58;100163.20;;;-1.13;100.00
35291;BME280;21411;50.024;19.220;2023-02-28T01:36:26;100162.85;;;-1.17;100.00
35291;BME280;21411;50.024;19.220;2023-02-28T01:38:52;100156.58;;;-1.22;100.00
35291;BME280;21411;50.024;19.220;2023-02-28T01:41:22;100157.27;;;-1.28;100.00
35291;BME280;21411;50.024;19.220;2023-02-28T01:46:16;100157.27;;;-1.37;100.00
35291;BME280;21411;50.024;19.220;2023-02-28T01:48:49;100157.98;;;-1.42;100.00
35291;BME280;21411;50.024;19.220;2023-02-28T01:51:21;100158.67;;;-1.45;100.00
35291;BME280;21411;50.024;19.220;2023-02-28T01:53:53;100156.06;;;-1.46;100.00
35291;BME280;21411;50.024;19.220;2023-02-28T01:56:26;100151.52;;;-1.49;100.00
35291;BME280;21411;50.024;19.220;2023-02-28T01:58:54;100151.70;;;-1.53;100.00
35291;BME280;21411;50.024;19.220;2023-02-28T02:01:23;100158.30;;;-1.56;100.00
35291;BME280;21411;50.024;19.220;2023-02-28T02:03:53;100155.34;;;-1.60;100.00
35291;BME280;21411;50.024;19.220;2023-02-28T02:06:26;100157.09;;;-1.64;100.00
35291;BME280;21411;50.024;19.220;2023-02-28T02:08:54;100161.25;;;-1.68;100.00
35291;BME280;21411;50.024;19.220;2023-02-28T02:11:22;100162.13;;;-1.70;100.00
35291;BME280;21411;50.024;19.220;2023-02-28T02:14:16;100166.14;;;-1.71;100.00
35291;BME280;21411;50.024;19.220;2023-02-28T02:28:53;100153.92;;;-1.83;100.00
35291;BME280;21411;50.024;19.220;2023-02-28T02:37:14;100150.45;;;-1.81;100.00
35291;BME280;21411;50.024;19.220;2023-02-28T02:40:04;100154.45;;;-1.79;100.00
35291;BME280;21411;50.024;19.220;2023-02-28T02:45:22;100149.23;;;-1.77;100.00
35291;BME280;21411;50.024;19.220;2023-02-28T02:47:51;100146.80;;;-1.76;100.00
35291;BME280;21411;50.024;19.220;2023-02-28T02:50:27;100150.98;;;-1.73;100.00
35291;BME280;21411;50.024;19.220;2023-02-28T02:52:58;100149.93;;;-1.74;100.00
35291;BME280;21411;50.024;19.220;2023-02-28T02:55:27;100150.98;;;-1.75;100.00
35291;BME280;21411;50.024;19.220;2023-02-28T02:57:58;100149.23;;;-1.77;100.00
35291;BME280;21411;50.024;19.220;2023-02-28T03:00:54;100152.89;;;-1.78;100.00
35291;BME280;21411;50.024;19.220;2023-02-28T03:03:23;100152.88;;;-1.79;100.00
35291;BME280;21411;50.024;19.220;2023-02-28T03:05:59;100156.36;;;-1.80;100.00
35291;BME280;21411;50.024;19.220;2023-02-28T03:08:29;100155.48;;;-1.81;100.00
35291;BME280;21411;50.024;19.220;2023-02-28T03:11:05;100156.89;;;-1.82;100.00
35291;BME280;21411;50.024;19.220;2023-02-28T03:16:23;100154.96;;;-1.87;100.00
35291;BME280;21411;50.024;19.220;2023-02-28T03:21:49;100142.91;;;-1.99;100.00
35291;BME280;21411;50.024;19.220;2023-02-28T03:27:16;100150.02;;;-2.13;100.00
35291;BME280;21411;50.024;19.220;2023-02-28T03:32:34;100153.80;;;-2.25;100.00
35291;BME280;21411;50.024;19.220;2023-02-28T03:35:12;100154.30;;;-2.32;100.00
35291;BME280;21411;50.024;19.220;2023-02-28T03:37:42;100161.08;;;-2.37;100.00
35291;BME280;21411;50.024;19.220;2023-02-28T03:40:17;100164.19;;;-2.42;100.00
35291;BME280;21411;50.024;19.220;2023-02-28T03:42:48;100167.48;;;-2.48;100.00
35291;BME280;21411;50.024;19.220;2023-02-28T03:45:20;100167.44;;;-2.53;100.00
35291;BME280;21411;50.024;19.220;2023-02-28T03:47:57;100166.36;;;-2.58;100.00
35291;BME280;21411;50.024;19.220;2023-02-28T03:50:30;100168.60;;;-2.64;100.00
35291;BME280;21411;50.024;19.220;2023-02-28T03:53:30;100170.31;;;-2.69;100.00
35291;BME280;21411;50.024;19.220;2023-02-28T03:58:44;100176.35;;;-2.77;100.00
35291;BME280;21411;50.024;19.220;2023-02-28T04:01:21;100178.23;;;-2.80;100.00
35291;BME280;21411;50.024;19.220;2023-02-28T04:03:50;100181.01;;;-2.84;100.00
35291;BME280;21411;50.024;19.220;2023-02-28T04:06:21;100186.20;;;-2.86;100.00
35291;BME280;21411;50.024;19.220;2023-02-28T04:08:48;100192.63;;;-2.89;100.00
35291;BME280;21411;50.024;19.220;2023-02-28T04:11:38;100194.00;;;-2.92;100.00
35291;BME280;21411;50.024;19.220;2023-02-28T04:14:07;100196.74;;;-2.95;100.00
35291;BME280;21411;50.024;19.220;2023-02-28T04:16:36;100193.77;;;-2.99;100.00
35291;BME280;21411;50.024;19.220;2023-02-28T04:19:05;100193.58;;;-3.02;100.00
35291;BME280;21411;50.024;19.220;2023-02-28T04:21:43;100197.39;;;-3.04;100.00
35291;BME280;21411;50.024;19.220;2023-02-28T04:24:12;100198.58;;;-3.05;100.00
35291;BME280;21411;50.024;19.220;2023-02-28T04:26:44;100199.10;;;-3.07;100.00
35291;BME280;21411;50.024;19.220;2023-02-28T04:29:14;100200.12;;;-3.09;100.00
35291;BME280;21411;50.024;19.220;2023-02-28T04:31:43;100194.38;;;-3.10;100.00
35291;BME280;21411;50.024;19.220;2023-02-28T04:34:10;100196.83;;;-3.11;100.00
35291;BME280;21411;50.024;19.220;2023-02-28T04:36:37;100201.16;;;-3.11;100.00
35291;BME280;21411;50.024;19.220;2023-02-28T04:39:03;100200.63;;;-3.12;100.00
35291;BME280;21411;50.024;19.220;2023-02-28T04:41:30;100202.02;;;-3.13;100.00
35291;BME280;21411;50.024;19.220;2023-02-28T04:43:57;100201.30;;;-3.14;100.00
35291;BME280;21411;50.024;19.220;2023-02-28T04:46:23;100198.34;;;-3.15;100.00
35291;BME280;21411;50.024;19.220;2023-02-28T04:48:50;100200.95;;;-3.16;100.00
35291;BME280;21411;50.024;19.220;2023-02-28T04:51:18;100201.63;;;-3.18;100.00
35291;BME280;21411;50.024;19.220;2023-02-28T04:53:45;100200.73;;;-3.19;100.00
35291;BME280;21411;50.024;19.220;2023-02-28T04:56:14;100199.16;;;-3.21;100.00
35291;BME280;21411;50.024;19.220;2023-02-28T04:58:41;100197.94;;;-3.23;100.00
35291;BME280;21411;50.024;19.220;2023-02-28T05:03:46;100199.98;;;-3.27;100.00
35291;BME280;21411;50.024;19.220;2023-02-28T05:06:13;100202.05;;;-3.29;100.00
35291;BME280;21411;50.024;19.220;2023-02-28T05:08:40;100199.43;;;-3.31;100.00
35291;BME280;21411;50.024;19.220;2023-02-28T05:11:17;100203.59;;;-3.33;100.00
35291;BME280;21411;50.024;19.220;2023-02-28T05:13:45;100204.42;;;-3.35;100.00
35291;BME280;21411;50.024;19.220;2023-02-28T05:16:11;100206.49;;;-3.37;100.00
35291;BME280;21411;50.024;19.220;2023-02-28T05:18:38;100209.27;;;-3.38;100.00
35291;BME280;21411;50.024;19.220;2023-02-28T05:21:05;100208.21;;;-3.38;100.00
35291;BME280;21411;50.024;19.220;2023-02-28T05:23:32;100208.58;;;-3.39;100.00
35291;BME280;21411;50.024;19.220;2023-02-28T05:25:59;100209.09;;;-3.38;100.00
35291;BME280;21411;50.024;19.220;2023-02-28T05:28:25;100210.31;;;-3.38;100.00
35291;BME280;21411;50.024;19.220;2023-02-28T05:30:52;100213.26;;;-3.39;100.00
35291;BME280;21411;50.024;19.220;2023-02-28T05:33:19;100215.16;;;-3.40;100.00
35291;BME280;21411;50.024;19.220;2023-02-28T05:35:45;100218.27;;;-3.41;100.00
35291;BME280;21411;50.024;19.220;2023-02-28T05:38:12;100221.73;;;-3.42;100.00
35291;BME280;21411;50.024;19.220;2023-02-28T05:40:39;100226.09;;;-3.42;100.00
35291;BME280;21411;50.024;19.220;2023-02-28T05:43:10;100233.39;;;-3.41;100.00
35291;BME280;21411;50.024;19.220;2023-02-28T05:45:37;100231.31;;;-3.41;100.00
35291;BME280;21411;50.024;19.220;2023-02-28T05:48:03;100233.56;;;-3.40;100.00
35291;BME280;21411;50.024;19.220;2023-02-28T05:50:30;100237.92;;;-3.39;100.00
35291;BME280;21411;50.024;19.220;2023-02-28T05:52:56;100236.36;;;-3.39;100.00
35291;BME280;21411;50.024;19.220;2023-02-28T05:55:23;100241.77;;;-3.37;100.00
35291;BME280;21411;50.024;19.220;2023-02-28T05:57:50;100247.36;;;-3.34;100.00
35291;BME280;21411;50.024;19.220;2023-02-28T06:00:17;100249.30;;;-3.32;100.00
35291;BME280;21411;50.024;19.220;2023-02-28T06:02:44;100250.55;;;-3.27;100.00
35291;BME280;21411;50.024;19.220;2023-02-28T06:05:15;100251.63;;;-3.23;100.00
35291;BME280;21411;50.024;19.220;2023-02-28T06:07:42;100252.73;;;-3.17;100.00
35291;BME280;21411;50.024;19.220;2023-02-28T06:10:12;100248.95;;;-3.13;100.00
35291;BME280;21411;50.024;19.220;2023-02-28T06:12:40;100254.54;;;-3.09;100.00
35291;BME280;21411;50.024;19.220;2023-02-28T06:15:16;100257.70;;;-3.04;100.00
35291;BME280;21411;50.024;19.220;2023-02-28T06:17:44;100258.43;;;-3.01;100.00
35291;BME280;21411;50.024;19.220;2023-02-28T06:20:11;100261.41;;;-2.97;100.00
35291;BME280;21411;50.024;19.220;2023-02-28T06:22:41;100263.17;;;-2.94;100.00
35291;BME280;21411;50.024;19.220;2023-02-28T06:25:09;100262.16;;;-2.93;100.00
35291;BME280;21411;50.024;19.220;2023-02-28T06:27:36;100260.44;;;-2.90;100.00
35291;BME280;21411;50.024;19.220;2023-02-28T06:30:03;100261.31;;;-2.87;100.00
35291;BME280;21411;50.024;19.220;2023-02-28T06:32:29;100268.30;;;-2.84;100.00
35291;BME280;21411;50.024;19.220;2023-02-28T06:34:56;100269.02;;;-2.81;100.00
35291;BME280;21411;50.024;19.220;2023-02-28T06:37:24;100272.17;;;-2.78;100.00
35291;BME280;21411;50.024;19.220;2023-02-28T06:39:54;100271.85;;;-2.75;100.00
35291;BME280;21411;50.024;19.220;2023-02-28T06:42:23;100271.19;;;-2.70;100.00
35291;BME280;21411;50.024;19.220;2023-02-28T06:44:55;100271.21;;;-2.67;100.00
35291;BME280;21411;50.024;19.220;2023-02-28T06:47:22;100275.23;;;-2.63;100.00
35291;BME280;21411;50.024;19.220;2023-02-28T06:49:49;100278.92;;;-2.59;100.00
35291;BME280;21411;50.024;19.220;2023-02-28T06:52:16;100283.30;;;-2.55;100.00
35291;BME280;21411;50.024;19.220;2023-02-28T06:54:42;100283.85;;;-2.51;100.00
35291;BME280;21411;50.024;19.220;2023-02-28T06:57:09;100281.27;;;-2.47;100.00
35291;BME280;21411;50.024;19.220;2023-02-28T06:59:35;100283.02;;;-2.44;100.00
35291;BME280;21411;50.024;19.220;2023-02-28T07:02:02;100284.78;;;-2.40;100.00
35291;BME280;21411;50.024;19.220;2023-02-28T07:04:31;100289.50;;;-2.38;100.00
35291;BME280;21411;50.024;19.220;2023-02-28T07:06:57;100289.86;;;-2.35;100.00
35291;BME280;21411;50.024;19.220;2023-02-28T07:09:24;100293.20;;;-2.32;100.00
35291;BME280;21411;50.024;19.220;2023-02-28T07:11:56;100294.27;;;-2.28;100.00
35291;BME280;21411;50.024;19.220;2023-02-28T07:14:23;100289.94;;;-2.24;100.00
35291;BME280;21411;50.024;19.220;2023-02-28T07:16:49;100289.79;;;-2.19;100.00
35291;BME280;21411;50.024;19.220;2023-02-28T07:19:16;100291.73;;;-2.14;100.00
35291;BME280;21411;50.024;19.220;2023-02-28T07:21:43;100294.02;;;-2.07;100.00
35291;BME280;21411;50.024;19.220;2023-02-28T07:24:09;100296.52;;;-2.00;100.00
35291;BME280;21411;50.024;19.220;2023-02-28T07:26:36;100300.38;;;-1.92;100.00
35291;BME280;21411;50.024;19.220;2023-02-28T07:29:04;100298.85;;;-1.84;100.00
35291;BME280;21411;50.024;19.220;2023-02-28T07:31:30;100299.58;;;-1.75;100.00
35291;BME280;21411;50.024;19.220;2023-02-28T07:33:57;100303.63;;;-1.64;100.00
35291;BME280;21411;50.024;19.220;2023-02-28T07:36:24;100303.30;;;-1.53;100.00
35291;BME280;21411;50.024;19.220;2023-02-28T07:38:51;100302.64;;;-1.42;100.00
35291;BME280;21411;50.024;19.220;2023-02-28T07:41:19;100303.19;;;-1.30;100.00
35291;BME280;21411;50.024;19.220;2023-02-28T07:43:46;100306.88;;;-1.19;100.00
35291;BME280;21411;50.024;19.220;2023-02-28T07:46:15;100304.29;;;-1.07;100.00
35291;BME280;21411;50.024;19.220;2023-02-28T07:48:43;100305.16;;;-0.96;100.00
35291;BME280;21411;50.024;19.220;2023-02-28T07:51:10;100303.61;;;-0.81;100.00
35291;BME280;21411;50.024;19.220;2023-02-28T07:53:36;100301.52;;;-0.64;100.00
35291;BME280;21411;50.024;19.220;2023-02-28T07:56:03;100300.98;;;-0.49;100.00
35291;BME280;21411;50.024;19.220;2023-02-28T07:58:31;100303.06;;;-0.34;100.00
35291;BME280;21411;50.024;19.220;2023-02-28T08:01:07;100301.98;;;-0.16;100.00
35291;BME280;21411;50.024;19.220;2023-02-28T08:03:35;100299.11;;;0.06;100.00
35291;BME280;21411;50.024;19.220;2023-02-28T08:06:03;100297.29;;;0.28;100.00
35291;BME280;21411;50.024;19.220;2023-02-28T08:08:30;100294.23;;;0.46;100.00
35291;BME280;21411;50.024;19.220;2023-02-28T08:10:59;100295.21;;;0.60;100.00
35291;BME280;21411;50.024;19.220;2023-02-28T08:13:28;100295.69;;;0.68;100.00
35291;BME280;21411;50.024;19.220;2023-02-28T08:15:55;100294.05;;;0.78;100.00
35291;BME280;21411;50.024;19.220;2023-02-28T08:18:23;100292.89;;;0.97;100.00
35291;BME280;21411;50.024;19.220;2023-02-28T08:20:50;100291.86;;;1.17;100.00
35291;BME280;21411;50.024;19.220;2023-02-28T08:23:16;100291.65;;;1.40;100.00
35291;BME280;21411;50.024;19.220;2023-02-28T08:25:43;100294.84;;;1.57;100.00
35291;BME280;21411;50.024;19.220;2023-02-28T08:28:10;100292.61;;;1.69;100.00
35291;BME280;21411;50.024;19.220;2023-02-28T08:30:36;100289.20;;;1.77;100.00
35291;BME280;21411;50.024;19.220;2023-02-28T08:33:03;100288.80;;;1.83;100.00
35291;BME280;21411;50.024;19.220;2023-02-28T08:35:30;100290.34;;;1.86;100.00
35291;BME280;21411;50.024;19.220;2023-02-28T08:37:56;100287.67;;;1.91;100.00
35291;BME280;21411;50.024;19.220;2023-02-28T08:40:24;100292.29;;;2.01;99.93
35291;BME280;21411;50.024;19.220;2023-02-28T08:42:50;100293.95;;;2.08;96.31
35291;BME280;21411;50.024;19.220;2023-02-28T08:45:17;100292.73;;;2.08;95.87
35291;BME280;21411;50.024;19.220;2023-02-28T08:47:44;100290.75;;;2.13;96.04
35291;BME280;21411;50.024;19.220;2023-02-28T08:50:10;100289.03;;;2.24;94.88
35291;BME280;21411;50.024;19.220;2023-02-28T08:52:37;100285.44;;;2.31;94.40
35291;BME280;21411;50.024;19.220;2023-02-28T08:55:04;100283.55;;;2.29;91.98
35291;BME280;21411;50.024;19.220;2023-02-28T08:57:32;100285.55;;;2.22;90.91
35291;BME280;21411;50.024;19.220;2023-02-28T08:59:59;100288.82;;;2.27;92.08
35291;BME280;21411;50.024;19.220;2023-02-28T09:02:26;100287.91;;;2.44;93.03
35291;BME280;21411;50.024;19.220;2023-02-28T09:04:52;100287.10;;;2.65;89.82
35291;BME280;21411;50.024;19.220;2023-02-28T09:07:19;100286.20;;;2.79;88.71
35291;BME280;21411;50.024;19.220;2023-02-28T09:09:46;100288.14;;;2.90;86.97
35291;BME280;21411;50.024;19.220;2023-02-28T09:12:22;100292.67;;;2.92;85.78
35291;BME280;21411;50.024;19.220;2023-02-28T09:14:50;100290.37;;;2.93;83.20
35291;BME280;21411;50.024;19.220;2023-02-28T09:17:17;100288.79;;;2.94;84.74
35291;BME280;21411;50.024;19.220;2023-02-28T09:19:44;100287.90;;;3.05;84.96
35291;BME280;21411;50.024;19.220;2023-02-28T09:22:11;100289.30;;;3.18;83.57
35291;BME280;21411;50.024;19.220;2023-02-28T09:24:38;100288.08;;;3.17;80.14
35291;BME280;21411;50.024;19.220;2023-02-28T09:27:05;100286.87;;;3.16;81.40
35291;BME280;21411;50.024;19.220;2023-02-28T09:29:33;100284.34;;;3.21;80.38
35291;BME280;21411;50.024;19.220;2023-02-28T09:32:00;100284.58;;;3.17;78.45
35291;BME280;21411;50.024;19.220;2023-02-28T09:34:28;100288.09;;;3.05;76.66
35291;BME280;21411;50.024;19.220;2023-02-28T09:36:58;100291.41;;;3.06;77.90
35291;BME280;21411;50.024;19.220;2023-02-28T09:39:25;100286.38;;;3.13;78.32
35291;BME280;21411;50.024;19.220;2023-02-28T09:41:54;100288.20;;;3.20;78.66
35291;BME280;21411;50.024;19.220;2023-02-28T09:44:36;100289.03;;;3.23;76.25
35291;BME280;21411;50.024;19.220;2023-02-28T09:49:51;100282.55;;;3.43;77.03
35291;BME280;21411;50.024;19.220;2023-02-28T09:52:21;100279.52;;;3.46;77.22
35291;BME280;21411;50.024;19.220;2023-02-28T09:54:50;100282.55;;;3.54;77.97
35291;BME280;21411;50.024;19.220;2023-02-28T09:57:33;100282.15;;;3.66;77.15
35291;BME280;21411;50.024;19.220;2023-02-28T10:05:14;100283.02;;;4.14;78.41
35291;BME280;21411;50.024;19.220;2023-02-28T10:10:26;100293.75;;;4.22;76.78
35291;BME280;21411;50.024;19.220;2023-02-28T10:12:56;100292.38;;;4.20;76.12
35291;BME280;21411;50.024;19.220;2023-02-28T10:15:27;100296.96;;;4.11;75.50
35291;BME280;21411;50.024;19.220;2023-02-28T10:18:00;100300.35;;;3.99;76.04
35291;BME280;21411;50.024;19.220;2023-02-28T10:20:32;100300.48;;;3.92;76.05
35291;BME280;21411;50.024;19.220;2023-02-28T10:23:04;100299.67;;;3.79;77.11
35291;BME280;21411;50.024;19.220;2023-02-28T10:25:35;100298.88;;;3.64;77.08
35291;BME280;21411;50.024;19.220;2023-02-28T10:28:12;100299.17;;;3.58;76.35
35291;BME280;21411;50.024;19.220;2023-02-28T10:30:42;100291.87;;;3.32;76.16
35291;BME280;21411;50.024;19.220;2023-02-28T10:33:18;100293.54;;;3.04;76.97
35291;BME280;21411;50.024;19.220;2023-02-28T10:35:47;100290.29;;;2.87;77.49
35291;BME280;21411;50.024;19.220;2023-02-28T10:38:20;100290.27;;;2.77;77.78
35291;BME280;21411;50.024;19.220;2023-02-28T10:40:47;100287.42;;;2.67;78.40
35291;BME280;21411;50.024;19.220;2023-02-28T10:45:57;100281.83;;;2.53;78.52
35291;BME280;21411;50.024;19.220;2023-02-28T10:48:30;100283.25;;;2.52;78.86
35291;BME280;21411;50.024;19.220;2023-02-28T10:50:57;100284.23;;;2.56;78.50
35291;BME280;21411;50.024;19.220;2023-02-28T10:53:37;100277.34;;;2.59;78.52
35291;BME280;21411;50.024;19.220;2023-02-28T10:56:09;100277.73;;;2.57;78.41
35291;BME280;21411;50.024;19.220;2023-02-28T11:01:42;100272.76;;;2.61;78.38
35291;BME280;21411;50.024;19.220;2023-02-28T11:06:46;100267.80;;;2.65;78.77
35291;BME280;21411;50.024;19.220;2023-02-28T11:09:29;100269.96;;;2.60;78.12
35291;BME280;21411;50.024;19.220;2023-02-28T11:11:57;100268.92;;;2.47;77.61
35291;BME280;21411;50.024;19.220;2023-02-28T11:14:26;100265.52;;;2.39;78.43
35291;BME280;21411;50.024;19.220;2023-02-28T11:16:54;100260.55;;;2.44;79.13
35291;BME280;21411;50.024;19.220;2023-02-28T11:19:26;100255.26;;;2.59;78.91
35291;BME280;21411;50.024;19.220;2023-02-28T11:22:00;100245.04;;;2.74;79.35
35291;BME280;21411;50.024;19.220;2023-02-28T11:24:31;100238.84;;;2.89;78.85
35291;BME280;21411;50.024;19.220;2023-02-28T11:26:59;100235.34;;;2.99;77.83
35291;BME280;21411;50.024;19.220;2023-02-28T11:29:27;100230.73;;;3.03;76.47
35291;BME280;21411;50.024;19.220;2023-02-28T11:34:37;100223.90;;;3.00;76.29
35291;BME280;21411;50.024;19.220;2023-02-28T11:37:11;100223.33;;;3.04;76.10
35291;BME280;21411;50.024;19.220;2023-02-28T11:39:38;100221.03;;;3.05;75.12
35291;BME280;21411;50.024;19.220;2023-02-28T11:47:49;100211.64;;;3.10;74.49
35291;BME280;21411;50.024;19.220;2023-02-28T11:53:02;100204.41;;;3.21;74.59
35291;BME280;21411;50.024;19.220;2023-02-28T11:55:41;100203.75;;;3.19;73.31
35291;BME280;21411;50.024;19.220;2023-02-28T11:58:29;100202.11;;;3.13;73.55
35291;BME280;21411;50.024;19.220;2023-02-28T12:09:40;100193.16;;;3.32;75.04
35291;BME280;21411;50.024;19.220;2023-02-28T12:17:37;100197.38;;;3.51;74.68
35291;BME280;21411;50.024;19.220;2023-02-28T12:20:33;100196.99;;;3.53;72.90
35291;BME280;21411;50.024;19.220;2023-02-28T12:28:58;100193.14;;;3.51;72.61
35291;BME280;21411;50.024;19.220;2023-02-28T12:31:31;100193.73;;;3.48;72.05
35291;BME280;21411;50.024;19.220;2023-02-28T12:34:06;100186.32;;;3.51;72.85
35291;BME280;21411;50.024;19.220;2023-02-28T12:36:36;100187.91;;;3.59;73.73
35291;BME280;21411;50.024;19.220;2023-02-28T12:39:16;100188.42;;;3.69;73.38
35291;BME280;21411;50.024;19.220;2023-02-28T12:41:52;100188.66;;;3.75;72.61
35291;BME280;21411;50.024;19.220;2023-02-28T12:44:26;100188.94;;;3.79;73.24
35291;BME280;21411;50.024;19.220;2023-02-28T12:47:03;100189.21;;;3.82;72.82
35291;BME280;21411;50.024;19.220;2023-02-28T12:49:39;100190.54;;;3.86;73.46
35291;BME280;21411;50.024;19.220;2023-02-28T12:52:10;100193.39;;;3.93;73.02
35291;BME280;21411;50.024;19.220;2023-02-28T12:54:46;100191.15;;;3.90;71.88
35291;BME280;21411;50.024;19.220;2023-02-28T12:59:56;100182.31;;;3.84;71.88
35291;BME280;21411;50.024;19.220;2023-02-28T13:02:33;100180.02;;;3.85;71.97
35291;BME280;21411;50.024;19.220;2023-02-28T13:10:47;100178.67;;;3.82;71.53
35291;BME280;21411;50.024;19.220;2023-02-28T13:13:19;100175.75;;;3.79;70.74
35291;BME280;21411;50.024;19.220;2023-02-28T13:18:34;100170.50;;;3.78;71.87
35291;BME280;21411;50.024;19.220;2023-02-28T13:21:05;100172.36;;;3.81;71.69
35291;BME280;21411;50.024;19.220;2023-02-28T13:23:36;100167.02;;;3.84;72.11
35291;BME280;21411;50.024;19.220;2023-02-28T13:26:04;100165.34;;;3.89;72.23
35291;BME280;21411;50.024;19.220;2023-02-28T13:39:57;100167.36;;;3.85;71.36
35291;BME280;21411;50.024;19.220;2023-02-28T13:42:34;100163.20;;;3.82;71.19
35291;BME280;21411;50.024;19.220;2023-02-28T13:50:38;100155.52;;;3.71;70.93
35291;BME280;21411;50.024;19.220;2023-02-28T13:58:46;100146.20;;;3.70;70.53
35291;BME280;21411;50.024;19.220;2023-02-28T14:01:27;100138.59;;;3.65;70.52
35291;BME280;21411;50.024;19.220;2023-02-28T14:07:06;100133.90;;;3.71;71.67
35291;BME280;21411;50.024;19.220;2023-02-28T14:09:37;100134.38;;;3.73;71.57
35291;BME280;21411;50.024;19.220;2023-02-28T14:15:28;100129.64;;;3.72;71.15
35291;BME280;21411;50.024;19.220;2023-02-28T14:17:57;100127.05;;;3.71;71.01
35291;BME280;21411;50.024;19.220;2023-02-28T14:20:29;100125.52;;;3.68;70.86
35291;BME280;21411;50.024;19.220;2023-02-28T14:23:21;100125.90;;;3.67;71.11
35291;BME280;21411;50.024;19.220;2023-02-28T14:25:53;100126.11;;;3.65;71.71
35291;BME280;21411;50.024;19.220;2023-02-28T14:29:08;100123.48;;;3.66;71.29
35291;BME280;21411;50.024;19.220;2023-02-28T14:31:42;100123.05;;;3.60;71.08
35291;BME280;21411;50.024;19.220;2023-02-28T14:36:58;100121.09;;;3.53;71.23
35291;BME280;21411;50.024;19.220;2023-02-28T14:39:27;100121.85;;;3.51;71.14
35291;BME280;21411;50.024;19.220;2023-02-28T14:41:57;100119.79;;;3.48;71.47
35291;BME280;21411;50.024;19.220;2023-02-28T14:44:31;100119.79;;;3.48;71.61
35291;BME280;21411;50.024;19.220;2023-02-28T14:47:02;100123.34;;;3.46;71.13
35291;BME280;21411;50.024;19.220;2023-02-28T14:49:41;100122.19;;;3.42;71.31
35291;BME280;21411;50.024;19.220;2023-02-28T14:52:20;100121.55;;;3.39;71.18
35291;BME280;21411;50.024;19.220;2023-02-28T14:54:56;100123.20;;;3.35;71.54
35291;BME280;21411;50.024;19.220;2023-02-28T15:02:25;100122.06;;;3.30;71.99
35291;BME280;21411;50.024;19.220;2023-02-28T15:07:39;100123.73;;;3.26;71.90
35291;BME280;21411;50.024;19.220;2023-02-28T15:12:36;100129.17;;;3.16;72.11
35291;BME280;21411;50.024;19.220;2023-02-28T15:15:03;100126.61;;;3.12;72.18